Time;durP1;ratioP1;P1;durP2;ratioP2;P2;SDS_P1;SDS_P2;PMS_P1;PMS_P2;Temp;Humidity;BMP_temperature;BMP_pressure;BME280_temperature;BME280_humidity;BME280_pressure;Samples;Min_cycle;Max_cycle;Signal;HPM_P1;HPM_P2
2022/10/05 00:02:23;;;;;;;16.38;7.35;;;;;;;7.45;100.00;98583.22;5097288;28;20016;-76
2022/10/05 00:04:55;;;;;;;11.85;6.97;;;;;;;7.40;100.00;98593.16;5126018;28;20034;-76
2022/10/05 00:07:21;;;;;;;13.60;6.85;;;;;;;7.38;100.00;98584.38;5076242;28;20032;-76
2022/10/05 00:09:57;;;;;;;13.88;6.80;;;;;;;7.45;100.00;98596.53;5108300;28;20506;-76
2022/10/05 00:12:23;;;;;;;12.20;7.07;;;;;;;7.42;100.00;98583.34;5100966;28;20026;-76
2022/10/05 00:14:52;;;;;;;16.02;7.95;;;;;;;7.55;100.00;98611.31;5101076;28;20024;-76
2022/10/05 00:17:23;;;;;;;14.35;7.15;;;;;;;7.55;100.00;98605.97;5112562;27;20027;-76
2022/10/05 00:19:52;;;;;;;16.40;7.50;;;;;;;7.42;100.00;98604.63;5105876;28;20027;-76
2022/10/05 00:22:23;;;;;;;15.60;7.47;;;;;;;7.42;100.00;98600.19;5101113;28;20035;-76
2022/10/05 00:24:54;;;;;;;15.68;7.35;;;;;;;7.48;100.00;98607.97;5096419;28;20031;-76
2022/10/05 00:27:21;;;;;;;12.25;7.80;;;;;;;7.47;100.00;98608.91;5105158;27;20027;-76
2022/10/05 00:29:48;;;;;;;10.43;7.13;;;;;;;7.56;100.00;98608.59;5119926;27;20040;-76
2022/10/05 00:32:14;;;;;;;13.27;6.78;;;;;;;7.56;100.00;98600.63;5106786;27;20379;-77
2022/10/05 00:34:40;;;;;;;11.70;6.55;;;;;;;7.57;100.00;98599.69;5109300;28;20105;-76
2022/10/05 00:37:06;;;;;;;13.38;6.72;;;;;;;7.53;100.00;98595.41;5104949;28;20024;-76
2022/10/05 00:39:33;;;;;;;16.45;7.70;;;;;;;7.70;100.00;98618.78;5104989;28;20567;-76
2022/10/05 00:42:06;;;;;;;12.90;7.28;;;;;;;7.73;100.00;98623.13;5096332;28;20019;-76
2022/10/05 00:44:42;;;;;;;10.15;6.65;;;;;;;7.79;100.00;98621.13;5109085;27;20490;-76
2022/10/05 00:47:32;;;;;;;12.27;7.22;;;;;;;7.82;100.00;98626.34;5102085;27;20096;-76
2022/10/05 00:50:51;;;;;;;10.10;6.65;;;;;;;7.94;100.00;98625.94;5125157;27;20446;-76
2022/10/05 00:53:28;;;;;;;17.25;7.18;;;;;;;7.98;100.00;98629.38;5034843;28;20122;-77
2022/10/05 00:56:08;;;;;;;11.65;7.63;;;;;;;8.00;100.00;98630.19;5103122;27;20118;-76
2022/10/05 00:58:47;;;;;;;11.27;7.18;;;;;;;8.08;100.00;98639.69;5112583;27;20076;-76
2022/10/05 01:01:22;;;;;;;13.63;7.07;;;;;;;8.04;100.00;98627.38;5112563;27;20023;-76
2022/10/05 01:04:11;;;;;;;13.65;6.85;;;;;;;7.97;100.00;98619.63;5098548;27;20035;-75
2022/10/05 01:07:10;;;;;;;13.98;6.55;;;;;;;7.85;100.00;98604.94;5118866;27;20060;-76
2022/10/05 01:09:48;;;;;;;9.15;6.18;;;;;;;7.77;100.00;98617.66;5128308;27;20035;-75
2022/10/05 01:12:28;;;;;;;15.27;7.28;;;;;;;7.77;100.00;98623.00;5105648;28;20498;-76
2022/10/05 01:15:31;;;;;;;11.68;6.68;;;;;;;7.74;100.00;98622.22;5112614;28;20120;-76
2022/10/05 01:18:04;;;;;;;13.00;7.25;;;;;;;7.59;100.00;98618.28;5063923;28;20070;-76
2022/10/05 01:20:30;;;;;;;12.43;6.80;;;;;;;7.60;100.00;98630.66;5108421;27;20034;-76
2022/10/05 01:22:55;;;;;;;10.23;6.60;;;;;;;7.54;100.00;98641.50;5134342;27;20027;-76
2022/10/05 01:25:33;;;;;;;10.63;6.57;;;;;;;7.35;100.00;98624.41;5121728;27;20035;-76
2022/10/05 01:28:06;;;;;;;14.60;6.65;;;;;;;7.21;100.00;98632.81;5107594;27;20091;-77
2022/10/05 01:30:38;;;;;;;11.45;6.97;;;;;;;7.24;100.00;98648.66;5090189;27;20066;-76
2022/10/05 01:33:23;;;;;;;13.93;6.43;;;;;;;7.20;100.00;98654.16;5115943;27;20523;-76
2022/10/05 01:35:58;;;;;;;10.73;6.60;;;;;;;7.17;100.00;98673.72;5115852;27;20030;-76
2022/10/05 01:38:49;;;;;;;16.05;6.05;;;;;;;7.14;100.00;98672.97;5132615;27;20064;-77
2022/10/05 01:41:18;;;;;;;16.08;7.88;;;;;;;7.24;100.00;98693.03;5096270;27;20094;-76
2022/10/05 01:44:07;;;;;;;15.50;7.47;;;;;;;7.35;100.00;98702.44;5133027;27;20027;-77
2022/10/05 01:46:40;;;;;;;12.60;7.55;;;;;;;7.36;100.00;98696.19;5134061;27;20504;-76
2022/10/05 01:49:16;;;;;;;10.88;6.20;;;;;;;7.30;100.00;98684.88;5115447;27;20034;-75
2022/10/05 01:51:57;;;;;;;12.20;5.82;;;;;;;7.22;100.00;98682.44;5111086;27;20015;-76
2022/10/05 01:54:39;;;;;;;11.05;6.25;;;;;;;7.34;100.00;98697.16;5131752;27;20027;-75
2022/10/05 01:57:26;;;;;;;11.48;6.32;;;;;;;7.40;100.00;98689.00;5115331;27;20038;-75
2022/10/05 01:59:58;;;;;;;14.05;6.57;;;;;;;7.44;100.00;98688.00;5112003;27;20393;-76
2022/10/05 02:02:24;;;;;;;12.13;6.80;;;;;;;7.44;100.00;98682.66;5132264;27;20019;-76
2022/10/05 02:04:53;;;;;;;8.75;5.78;;;;;;;7.43;100.00;98683.56;5115397;27;20281;-77
2022/10/05 02:07:39;;;;;;;11.60;6.57;;;;;;;7.40;100.00;98683.66;5095653;27;20047;-77
2022/10/05 02:10:10;;;;;;;15.23;6.53;;;;;;;7.35;100.00;98685.63;5115083;27;20027;-76
2022/10/05 02:12:37;;;;;;;9.52;6.40;;;;;;;7.31;100.00;98683.94;5132302;27;20027;-76
2022/10/05 02:15:25;;;;;;;11.68;5.75;;;;;;;7.21;100.00;98688.69;5098080;27;20026;-76
2022/10/05 02:17:55;;;;;;;13.52;6.95;;;;;;;7.20;100.00;98689.59;5110979;27;20057;-76
2022/10/05 02:20:27;;;;;;;15.90;6.82;;;;;;;7.15;100.00;98691.53;5131974;27;20027;-76
2022/10/05 02:22:57;;;;;;;15.32;6.80;;;;;;;7.08;100.00;98684.63;5097994;27;20034;-77
2022/10/05 02:25:27;;;;;;;16.92;7.25;;;;;;;7.13;100.00;98692.50;5097697;27;20035;-77
2022/10/05 02:28:19;;;;;;;14.45;6.93;;;;;;;7.19;100.00;98703.81;5114713;27;20106;-77
2022/10/05 02:31:09;;;;;;;16.58;7.03;;;;;;;7.14;100.00;98704.91;5133011;27;20434;-77
2022/10/05 02:33:35;;;;;;;15.23;7.22;;;;;;;7.03;100.00;98697.22;5082170;27;20034;-76
2022/10/05 02:36:14;;;;;;;17.25;7.80;;;;;;;7.04;100.00;98714.94;5097485;27;20368;-76
2022/10/05 02:39:18;;;;;;;13.98;7.50;;;;;;;6.94;100.00;98701.03;5097696;27;20054;-76
2022/10/05 02:41:54;;;;;;;15.23;7.13;;;;;;;6.82;100.00;98708.47;5127794;27;20406;-77
2022/10/05 02:44:38;;;;;;;16.88;7.63;;;;;;;6.79;100.00;98713.88;5132617;27;20058;-76
2022/10/05 02:47:16;;;;;;;11.43;6.53;;;;;;;6.81;100.00;98707.59;5132908;27;20106;-75
2022/10/05 02:49:58;;;;;;;10.73;6.38;;;;;;;6.84;100.00;98720.81;5114244;27;20031;-77
2022/10/05 02:52:35;;;;;;;11.75;6.65;;;;;;;6.86;100.00;98732.25;5097278;27;20035;-76
2022/10/05 02:55:15;;;;;;;11.50;6.75;;;;;;;6.86;100.00;98726.94;5097263;27;20130;-75
2022/10/05 02:57:48;;;;;;;15.77;7.80;;;;;;;6.93;100.00;98728.53;5114187;27;20027;-75
2022/10/05 03:00:17;;;;;;;;;;;;;;;6.98;100.00;98728.41;5097716;27;20076;-76
2022/10/05 03:03:11;;;;;;;18.10;7.90;;;;;;;6.94;100.00;98732.06;5114066;27;19915;-75
2022/10/05 03:05:48;;;;;;;18.10;8.73;;;;;;;6.97;100.00;98739.94;5132371;27;20025;-77
2022/10/05 03:08:26;;;;;;;15.43;7.90;;;;;;;7.02;100.00;98748.66;5113969;27;20031;-76
2022/10/05 03:10:58;;;;;;;17.63;8.27;;;;;;;6.98;100.00;98747.03;5126919;27;20019;-77
2022/10/05 03:13:44;;;;;;;19.30;8.35;;;;;;;6.96;100.00;98738.19;5113826;27;20025;-76
2022/10/05 03:16:31;;;;;;;16.08;7.47;;;;;;;7.00;100.00;98750.50;5113820;27;20029;-75
2022/10/05 03:19:03;;;;;;;12.32;7.22;;;;;;;7.01;100.00;98753.09;5125908;27;20023;-76
2022/10/05 03:22:05;;;;;;;19.60;8.15;;;;;;;7.02;100.00;98746.00;5132095;27;20030;-77
2022/10/05 03:24:52;;;;;;;15.55;7.35;;;;;;;6.90;100.00;98749.88;5113604;27;20050;-76
2022/10/05 03:27:35;;;;;;;22.60;8.82;;;;;;;6.87;100.00;98749.09;5132001;27;20027;-76
2022/10/05 03:30:12;;;;;;;18.70;8.93;;;;;;;6.83;100.00;98750.13;5105369;28;20051;-76
2022/10/05 03:32:44;;;;;;;15.13;7.95;;;;;;;6.73;100.00;98762.78;5110151;28;20185;-78
2022/10/05 03:35:39;;;;;;;17.08;7.25;;;;;;;6.57;100.00;98761.44;5110331;28;20490;-75
2022/10/05 03:38:11;;;;;;;14.50;8.77;;;;;;;6.52;100.00;98769.53;5088906;28;20039;-75
2022/10/05 03:40:58;;;;;;;23.13;8.60;;;;;;;6.63;100.00;98777.22;5110116;28;20191;-76
2022/10/05 03:43:45;;;;;;;13.18;7.63;;;;;;;6.62;100.00;98775.47;5127509;27;20027;-75
2022/10/05 03:46:30;;;;;;;13.00;6.60;;;;;;;6.74;100.00;98793.75;5127404;27;20456;-76
2022/10/05 03:49:26;;;;;;;16.17;7.78;;;;;;;6.60;100.00;98781.75;5109990;28;20480;-75
2022/10/05 03:52:00;;;;;;;19.73;7.07;;;;;;;6.46;100.00;98768.84;5126935;27;20510;-76
2022/10/05 03:54:43;;;;;;;16.35;6.50;;;;;;;6.26;100.00;98771.13;5109884;28;20024;-76
2022/10/05 03:57:21;;;;;;;10.38;5.97;;;;;;;6.16;100.00;98759.84;5089997;28;20118;-76
2022/10/05 04:00:00;;;;;;;12.40;6.05;;;;;;;6.06;100.00;98768.09;5110768;28;20531;-77
2022/10/05 04:02:30;;;;;;;13.98;5.75;;;;;;;5.96;100.00;98762.13;5109938;28;20023;-76
2022/10/05 04:05:02;;;;;;;12.55;6.03;;;;;;;5.93;100.00;98763.09;5109832;28;20391;-76
2022/10/05 04:07:47;;;;;;;10.40;6.35;;;;;;;5.98;100.00;98782.41;5093951;28;20032;-78
2022/10/05 04:10:17;;;;;;;10.20;6.47;;;;;;;5.88;100.00;98780.88;5110729;28;20019;-74
2022/10/05 04:12:47;;;;;;;15.35;6.68;;;;;;;5.94;100.00;98801.09;5109833;28;20028;-77
2022/10/05 04:15:25;;;;;;;28.23;9.00;;;;;;;6.00;100.00;98807.16;5109734;28;20023;-77
2022/10/05 04:17:58;;;;;;;13.85;7.07;;;;;;;6.05;100.00;98820.34;5092660;28;20055;-77
2022/10/05 04:20:39;;;;;;;11.48;7.03;;;;;;;6.10;100.00;98817.56;5109674;28;20020;-76
2022/10/05 04:23:47;;;;;;;15.90;8.57;;;;;;;6.28;100.00;98830.38;5093661;28;20106;-75
2022/10/05 04:26:19;;;;;;;18.25;10.02;;;;;;;6.31;100.00;98822.34;5106107;28;20106;-76
2022/10/05 04:28:53;;;;;;;21.67;8.95;;;;;;;6.41;100.00;98829.19;5095006;28;20074;-77
2022/10/05 04:31:39;;;;;;;23.33;8.18;;;;;;;6.45;100.00;98826.44;5095800;28;20546;-77
2022/10/05 04:34:35;;;;;;;21.58;8.85;;;;;;;6.57;100.00;98835.00;5095738;28;20126;-77
2022/10/05 04:37:05;;;;;;;21.10;13.15;;;;;;;6.66;100.00;98840.06;5095596;28;20511;-76
2022/10/05 04:39:47;;;;;;;20.95;10.88;;;;;;;6.64;100.00;98850.78;5112896;28;20011;-77
2022/10/05 04:42:37;;;;;;;23.08;8.65;;;;;;;6.65;100.00;98838.31;5112862;28;20015;-78
2022/10/05 04:45:08;;;;;;;28.88;9.48;;;;;;;6.70;100.00;98845.28;5095607;28;20122;-76
2022/10/05 04:47:49;;;;;;;11.30;6.35;;;;;;;6.65;100.00;98836.53;5112719;28;20057;-76
2022/10/05 04:50:46;;;;;;;25.95;10.32;;;;;;;6.71;100.00;98839.03;5127197;28;20027;-78
2022/10/05 04:53:29;;;;;;;22.10;9.82;;;;;;;6.86;100.00;98849.28;5111469;28;20043;-76
2022/10/05 04:56:04;;;;;;;33.28;12.52;;;;;;;6.82;100.00;98844.09;5092902;28;20458;-79
2022/10/05 04:58:44;;;;;;;38.85;15.43;;;;;;;6.87;100.00;98840.41;5095496;28;20031;-75
2022/10/05 05:01:22;;;;;;;42.17;18.13;;;;;;;7.12;100.00;98853.03;5112242;28;20023;-75
2022/10/05 05:03:57;;;;;;;56.72;17.52;;;;;;;7.61;100.00;98862.25;5130737;27;20027;-76
2022/10/05 05:06:39;;;;;;;30.60;12.93;;;;;;;8.15;100.00;98859.72;5132691;27;20080;-76
2022/10/05 05:09:22;;;;;;;31.20;11.10;;;;;;;8.86;100.00;98848.53;5115909;27;20482;-76
2022/10/05 05:12:07;;;;;;;34.10;17.48;;;;;;;9.69;100.00;98841.97;5111995;27;20031;-77
2022/10/05 05:14:57;;;;;;;16.60;9.20;;;;;;;10.59;100.00;98836.63;5134236;27;20030;-76
2022/10/05 05:17:32;;;;;;;22.27;8.35;;;;;;;11.35;100.00;98829.72;5116157;27;20026;-77
2022/10/05 05:20:19;;;;;;;22.88;10.57;;;;;;;11.79;100.00;98814.34;5132944;27;20042;-78
2022/10/05 05:22:50;;;;;;;23.85;11.52;;;;;;;12.10;97.64;98786.94;5133084;27;20057;-77
2022/10/05 05:25:26;;;;;;;15.90;10.32;;;;;;;11.95;96.79;98768.91;5132756;27;20408;-76
2022/10/05 05:27:54;;;;;;;20.75;9.95;;;;;;;12.29;95.70;98771.69;5134272;27;20053;-76
2022/10/05 05:30:44;;;;;;;27.63;13.77;;;;;;;12.92;90.56;98766.72;5115744;27;20126;-77
2022/10/05 05:33:26;;;;;;;25.10;13.32;;;;;;;13.38;88.15;98763.34;5132287;27;20486;-76
2022/10/05 05:36:40;;;;;;;14.85;8.52;;;;;;;14.44;83.07;98754.69;5116046;27;20027;-78
2022/10/05 05:39:17;;;;;;;26.10;11.23;;;;;;;15.37;76.65;98722.97;5032625;28;20033;-77
2022/10/05 05:42:42;;;;;;;21.00;11.40;;;;;;;15.98;73.91;98694.81;5085937;27;20067;-78
2022/10/05 05:45:59;;;;;;;24.52;11.40;;;;;;;17.05;68.95;98679.38;5068690;28;20095;-77
2022/10/05 05:48:37;;;;;;;23.67;9.90;;;;;;;17.99;64.62;98650.06;5039615;28;20033;-78
2022/10/05 05:51:07;;;;;;;20.00;9.60;;;;;;;17.21;64.60;98620.53;5114943;27;20023;-77
2022/10/05 05:53:42;;;;;;;25.52;10.32;;;;;;;17.96;62.86;98606.97;5115444;27;20019;-78
2022/10/05 05:56:18;;;;;;;16.70;10.07;;;;;;;18.95;60.15;98604.59;5115471;27;20019;-78
2022/10/05 05:58:50;;;;;;;14.80;9.10;;;;;;;19.48;57.69;98591.34;5115388;27;20095;-78
2022/10/05 06:01:36;;;;;;;23.65;9.80;;;;;;;20.38;54.87;98598.31;5097967;27;20058;-77
2022/10/05 06:04:37;;;;;;;18.45;10.13;;;;;;;21.15;52.33;98582.53;5098467;27;20340;-77
2022/10/05 06:07:04;;;;;;;40.60;18.58;;;;;;;20.74;51.74;98551.63;5066163;28;20037;-77
2022/10/05 06:09:48;;;;;;;38.33;21.92;;;;;;;20.54;53.03;98560.66;5085773;27;20470;-76
2022/10/05 06:12:52;;;;;;;30.73;19.25;;;;;;;20.42;52.73;98554.44;5132951;27;20023;-77
2022/10/05 06:15:43;;;;;;;24.00;11.68;;;;;;;20.91;50.77;98551.03;5015873;28;20041;-78
2022/10/05 06:18:15;;;;;;;19.02;10.23;;;;;;;20.94;50.48;98550.75;5026276;28;20099;-76
2022/10/05 06:21:08;;;;;;;16.52;8.93;;;;;;;20.94;50.16;98542.59;5095563;27;20104;-76
2022/10/05 06:23:48;;;;;;;13.85;9.60;;;;;;;21.08;50.01;98530.47;5107920;27;20035;-77
2022/10/05 06:26:27;;;;;;;14.60;8.57;;;;;;;20.48;50.66;98517.69;5132650;27;20031;-77
2022/10/05 06:29:00;;;;;;;18.98;8.50;;;;;;;20.57;51.33;98524.19;5097641;27;20402;-76
2022/10/05 06:31:33;;;;;;;15.90;8.80;;;;;;;20.66;51.31;98543.28;5114445;27;20056;-76
2022/10/05 06:34:37;;;;;;;25.38;10.05;;;;;;;21.87;48.70;98537.75;5114653;27;20126;-78
2022/10/05 06:37:11;;;;;;;11.20;7.40;;;;;;;22.43;47.59;98551.59;5097809;27;20031;-78
2022/10/05 06:39:59;;;;;;;15.52;8.55;;;;;;;23.63;44.65;98551.75;5114492;27;20030;-78
2022/10/05 06:42:35;;;;;;;14.02;7.90;;;;;;;24.12;43.47;98534.03;5133080;27;20393;-77
2022/10/05 06:45:10;;;;;;;20.10;12.73;;;;;;;23.88;43.51;98528.28;5114524;27;20027;-76
2022/10/05 06:48:09;;;;;;;18.05;10.68;;;;;;;22.70;45.96;98542.72;5097555;27;20034;-77
2022/10/05 06:50:42;;;;;;;28.58;15.07;;;;;;;21.53;48.52;98539.97;5105693;27;20031;-77
2022/10/05 06:53:26;;;;;;;30.45;11.55;;;;;;;21.31;49.23;98537.50;5114385;27;20110;-76
2022/10/05 06:56:09;;;;;;;17.63;12.52;;;;;;;20.62;50.74;98536.38;5131563;27;20076;-77
2022/10/05 06:58:37;;;;;;;13.55;8.13;;;;;;;20.55;50.97;98538.78;5097365;27;20031;-76
2022/10/05 07:01:29;;;;;;;15.65;7.00;;;;;;;21.35;49.87;98546.25;5114138;27;20448;-77
2022/10/05 07:04:18;;;;;;;18.15;9.93;;;;;;;21.58;49.12;98536.84;5127560;27;20493;-77
2022/10/05 07:06:56;;;;;;;15.00;8.20;;;;;;;20.88;50.70;98543.13;5114326;27;20027;-77
2022/10/05 07:09:43;;;;;;;23.15;10.57;;;;;;;21.47;49.34;98540.53;5113819;27;20023;-77
2022/10/05 07:12:22;;;;;;;11.15;6.88;;;;;;;22.40;47.56;98543.72;5131051;27;20410;-78
2022/10/05 07:15:06;;;;;;;17.05;6.82;;;;;;;23.06;46.32;98547.38;5114377;27;20102;-77
2022/10/05 07:17:48;;;;;;;10.38;6.70;;;;;;;22.94;46.37;98534.91;5113774;27;20065;-77
2022/10/05 07:20:16;;;;;;;;;;;;;;;23.36;45.39;98529.84;5114602;27;20023;-78
2022/10/05 07:23:12;;;;;;;37.47;9.77;;;;;;;23.82;45.05;98522.56;5130999;27;20358;-77
2022/10/05 07:25:40;;;;;;;24.23;7.15;;;;;;;24.25;43.84;98531.78;5132445;27;20042;-78
2022/10/05 07:28:12;;;;;;;9.23;5.97;;;;;;;24.10;42.83;98505.97;5113214;27;20455;-77
2022/10/05 07:31:06;;;;;;;10.50;6.15;;;;;;;23.87;43.61;98512.88;5113481;27;20506;-78
2022/10/05 07:33:54;;;;;;;7.53;5.30;;;;;;;24.53;42.42;98510.66;5096691;27;20031;-77
2022/10/05 07:39:44;;;;;;;8.30;5.47;;;;;;;24.50;41.81;98491.81;5114057;27;20051;-78
2022/10/05 07:42:19;;;;;;;9.55;6.03;;;;;;;24.57;41.75;98505.72;5113643;27;20027;-78
2022/10/05 07:44:51;;;;;;;12.68;6.80;;;;;;;24.66;42.07;98494.69;5131127;27;20079;-78
2022/10/05 07:47:35;;;;;;;12.82;6.55;;;;;;;25.08;41.76;98513.97;5096767;27;20571;-78
2022/10/05 07:50:22;;;;;;;19.17;7.53;;;;;;;24.92;41.74;98510.28;5116630;27;20114;-78
2022/10/05 07:52:54;;;;;;;14.07;6.28;;;;;;;25.31;40.79;98512.41;5113173;28;20075;-78
2022/10/05 07:55:24;;;;;;;;;;;;;;;24.16;42.78;98499.91;5096875;28;20089;-77
2022/10/05 07:58:23;;;;;;;11.40;7.13;;;;;;;25.04;41.84;98520.78;5113363;28;19995;-78
2022/10/05 08:01:03;;;;;;;15.00;6.75;;;;;;;25.94;39.64;98513.84;5113685;28;20467;-77
2022/10/05 08:03:51;;;;;;;10.63;4.72;;;;;;;25.93;40.02;98521.22;5113703;28;20019;-78
2022/10/05 08:06:28;;;;;;;14.60;5.43;;;;;;;26.79;39.04;98538.16;5096796;28;20031;-78
2022/10/05 08:09:01;;;;;;;6.85;4.68;;;;;;;28.08;35.66;98531.44;5123132;28;20031;-78
2022/10/05 08:11:32;;;;;;;6.30;4.25;;;;;;;28.28;35.23;98522.53;5096152;28;20034;-78
2022/10/05 08:14:15;;;;;;;7.18;4.00;;;;;;;27.90;35.92;98512.44;5113627;28;20041;-78
2022/10/05 08:16:42;;;;;;;6.50;4.70;;;;;;;26.84;37.84;98502.81;5113946;28;20034;-78
2022/10/05 08:19:20;;;;;;;9.98;5.10;;;;;;;26.32;38.30;98508.63;5113381;28;20083;-78
2022/10/05 08:21:50;;;;;;;8.57;4.72;;;;;;;26.19;38.15;98500.03;5113619;28;20422;-77
2022/10/05 08:24:21;;;;;;;8.15;4.07;;;;;;;26.59;37.01;98493.72;5113531;28;20054;-78
2022/10/05 08:26:47;;;;;;;8.38;3.30;;;;;;;27.01;37.26;98515.47;5113443;28;20015;-77
2022/10/05 08:29:32;;;;;;;7.63;3.47;;;;;;;27.41;35.64;98506.25;5131712;28;20410;-78
2022/10/05 08:32:09;;;;;;;5.05;3.40;;;;;;;26.31;37.32;98489.59;5110321;28;20451;-78
2022/10/05 08:34:44;;;;;;;5.15;3.30;;;;;;;26.93;36.66;98499.88;5113440;28;20027;-77
2022/10/05 08:37:29;;;;;;;9.80;3.78;;;;;;;28.16;34.59;98507.50;5113621;28;20027;-78
2022/10/05 08:40:16;;;;;;;6.93;4.35;;;;;;;28.23;35.04;98508.47;5116736;27;20019;-79
2022/10/05 08:43:15;;;;;;;13.98;4.65;;;;;;;28.77;33.60;98494.63;5112690;28;20092;-78
2022/10/05 08:45:48;;;;;;;6.07;3.72;;;;;;;28.05;33.96;98477.66;5132913;27;20088;-79
2022/10/05 08:48:51;;;;;;;5.72;3.47;;;;;;;28.46;33.65;98483.69;5100440;27;20402;-79
2022/10/05 08:51:35;;;;;;;6.68;3.63;;;;;;;29.61;31.83;98493.38;5135597;27;20463;-79
2022/10/05 08:54:13;;;;;;;5.10;2.60;;;;;;;29.82;30.96;98479.69;5133386;27;20574;-79
2022/10/05 08:57:07;;;;;;;19.15;3.50;;;;;;;28.37;36.09;98480.13;5116815;27;20023;-77
2022/10/05 09:00:07;;;;;;;9.48;3.35;;;;;;;27.48;35.89;98484.44;5099247;27;20041;-77
2022/10/05 09:02:36;;;;;;;5.68;2.30;;;;;;;27.57;37.55;98483.38;5099892;27;20015;-78
2022/10/05 09:05:21;;;;;;;7.07;3.30;;;;;;;27.03;36.68;98469.47;5116800;27;20096;-78
2022/10/05 09:08:05;;;;;;;6.03;3.25;;;;;;;25.57;38.38;98471.25;5116798;27;20031;-77
2022/10/05 09:10:49;;;;;;;5.22;3.83;;;;;;;25.92;39.30;98489.34;5135262;27;20034;-79
2022/10/05 09:13:35;;;;;;;4.80;1.77;;;;;;;25.05;39.49;98473.22;5135535;27;20402;-78
2022/10/05 09:16:16;;;;;;;4.43;2.08;;;;;;;24.82;38.44;98466.59;5114743;28;20474;-78
2022/10/05 09:19:08;;;;;;;6.57;2.90;;;;;;;24.83;38.40;98460.09;5102357;28;20043;-79
2022/10/05 09:21:41;;;;;;;3.47;2.05;;;;;;;26.52;36.92;98491.84;5112707;27;20559;-78
2022/10/05 09:24:13;;;;;;;3.80;1.65;;;;;;;26.75;38.61;98503.81;5096984;28;20034;-79
2022/10/05 09:26:42;;;;;;;4.93;2.00;;;;;;;25.54;36.33;98457.88;5134036;27;20033;-78
2022/10/05 09:29:10;;;;;;;3.45;2.15;;;;;;;27.01;35.34;98487.16;5116419;27;20043;-79
2022/10/05 09:32:08;;;;;;;8.35;2.42;;;;;;;26.77;35.60;98468.78;5116524;27;20118;-79
2022/10/05 09:34:58;;;;;;;2.95;1.70;;;;;;;27.04;36.43;98486.81;5117061;27;20030;-77
2022/10/05 09:38:01;;;;;;;3.65;1.92;;;;;;;26.78;35.38;98478.75;5126588;27;20084;-78
2022/10/05 09:40:40;;;;;;;5.28;1.90;;;;;;;27.24;34.96;98488.97;5134123;27;20027;-78
2022/10/05 09:43:33;;;;;;;2.55;1.65;;;;;;;27.04;34.71;98459.34;5116745;27;20049;-79
2022/10/05 09:46:31;;;;;;;1.58;1.38;;;;;;;26.61;35.38;98458.69;5116607;27;20055;-80
2022/10/05 09:49:15;;;;;;;6.78;2.03;;;;;;;26.70;35.01;98452.16;5092547;27;20043;-78
2022/10/05 09:52:08;;;;;;;18.08;2.40;;;;;;;27.50;34.27;98476.91;5103585;27;20114;-78
2022/10/05 09:55:00;;;;;;;3.70;1.67;;;;;;;29.36;31.74;98490.06;5116141;27;20038;-79
2022/10/05 09:57:34;;;;;;;10.98;1.95;;;;;;;28.71;32.84;98474.19;5109875;27;20539;-78
2022/10/05 10:00:21;;;;;;;3.70;1.83;;;;;;;29.61;30.53;98466.66;5134216;27;20023;-78
2022/10/05 10:03:33;;;;;;;6.15;2.33;;;;;;;28.55;33.94;98456.94;5134353;27;20517;-78
2022/10/05 10:06:24;;;;;;;8.57;1.63;;;;;;;29.19;31.64;98467.34;5048109;28;20505;-78
2022/10/05 10:08:56;;;;;;;2.53;1.63;;;;;;;28.59;31.18;98453.63;5114607;27;20042;-78
2022/10/05 10:11:37;;;;;;;2.28;1.80;;;;;;;28.70;34.18;98469.72;5115802;27;20032;-78
2022/10/05 10:14:40;;;;;;;2.65;1.40;;;;;;;28.79;31.72;98463.13;5098734;27;20088;-78
2022/10/05 10:17:56;;;;;;;9.30;3.88;;;;;;;27.10;34.90;98456.72;5108634;28;20019;-78
2022/10/05 10:20:37;;;;;;;4.65;1.90;;;;;;;26.49;33.81;98440.03;5079699;27;20046;-78
2022/10/05 10:23:27;;;;;;;3.67;1.95;;;;;;;25.87;35.08;98453.34;5115567;27;20505;-78
2022/10/05 10:26:15;;;;;;;3.40;1.60;;;;;;;23.83;38.76;98448.63;5111025;27;20034;-78
2022/10/05 10:28:49;;;;;;;2.60;1.50;;;;;;;22.77;40.61;98456.53;5133651;27;20091;-78
2022/10/05 10:31:22;;;;;;;3.85;1.52;;;;;;;21.80;41.83;98465.78;5115380;27;20087;-76
2022/10/05 10:34:09;;;;;;;6.88;2.22;;;;;;;22.04;42.18;98479.88;5133708;27;20031;-76
2022/10/05 10:37:09;;;;;;;1.92;1.42;;;;;;;21.41;42.00;98464.03;5115007;27;20052;-77
2022/10/05 10:39:47;;;;;;;1.70;0.90;;;;;;;22.61;40.49;98487.13;5115712;27;20027;-76
2022/10/05 10:42:40;;;;;;;1.83;1.30;;;;;;;24.93;37.48;98496.44;5133821;27;20099;-79
2022/10/05 10:45:31;;;;;;;2.70;1.40;;;;;;;26.73;33.90;98490.25;5129356;27;20054;-79
2022/10/05 10:48:03;;;;;;;1.42;1.15;;;;;;;26.15;34.02;98465.75;5127477;27;20027;-78
2022/10/05 10:50:46;;;;;;;3.70;1.55;;;;;;;26.74;33.85;98464.50;5115249;27;20454;-77
2022/10/05 10:53:33;;;;;;;9.02;2.03;;;;;;;26.72;33.53;98460.22;5115039;27;20035;-78
2022/10/05 10:56:03;;;;;;;2.25;1.30;;;;;;;27.08;33.05;98452.44;5115120;27;20088;-80
2022/10/05 10:58:55;;;;;;;2.47;1.40;;;;;;;27.15;33.59;98446.06;5097851;27;20029;-79
2022/10/05 11:01:24;;;;;;;1.85;1.30;;;;;;;27.65;32.66;98444.84;5133532;27;20019;-79
2022/10/05 11:03:59;;;;;;;7.93;1.30;;;;;;;27.86;31.79;98445.94;5133417;27;20527;-78
2022/10/05 11:07:02;;;;;;;4.70;1.10;;;;;;;27.98;31.35;98427.09;5098038;27;20019;-79
2022/10/05 11:09:42;;;;;;;12.68;1.27;;;;;;;29.03;30.30;98432.53;5132131;27;20425;-79
2022/10/05 11:12:43;;;;;;;7.50;2.15;;;;;;;29.39;30.11;98432.63;5114782;27;20031;-79
2022/10/05 11:15:34;;;;;;;2.72;1.58;;;;;;;29.41;30.18;98415.91;5107046;28;20100;-78
2022/10/05 11:18:08;;;;;;;2.35;1.45;;;;;;;30.01;29.05;98418.34;5098072;27;20034;-79
2022/10/05 11:20:40;;;;;;;6.60;1.40;;;;;;;30.57;27.64;98413.81;5097669;27;20038;-78
2022/10/05 11:23:29;;;;;;;1.92;1.02;;;;;;;27.80;30.53;98369.63;5114658;27;20486;-79
2022/10/05 11:26:16;;;;;;;2.30;0.82;;;;;;;25.62;33.38;98372.09;5097178;27;20039;-79
2022/10/05 11:29:16;;;;;;;5.22;1.75;;;;;;;24.80;35.56;98375.50;5141569;27;20027;-79
2022/10/05 11:32:04;;;;;;;2.85;1.50;;;;;;;24.61;35.40;98393.03;5125382;27;20031;-79
2022/10/05 11:35:03;;;;;;;3.45;2.00;;;;;;;27.21;32.49;98409.66;5123882;28;20049;-81
2022/10/05 11:37:37;;;;;;;2.03;1.30;;;;;;;28.06;31.89;98402.28;5124343;27;20041;-80
2022/10/05 11:40:48;;;;;;;2.25;1.38;;;;;;;28.04;32.22;98390.59;5124943;27;20471;-84
2022/10/05 11:43:31;;;;;;;1.55;1.23;;;;;;;29.21;29.99;98410.09;5087859;28;20415;-82
2022/10/05 11:46:11;;;;;;;2.65;1.75;;;;;;;27.99;32.11;98384.78;5111804;27;20117;-84
2022/10/05 11:48:50;;;;;;;1.83;1.30;;;;;;;27.96;32.03;98388.75;5112814;28;20467;-82
2022/10/05 11:51:33;;;;;;;1.75;1.20;;;;;;;27.11;31.42;98362.28;5106968;27;20486;-83
2022/10/05 11:54:19;;;;;;;6.55;1.02;;;;;;;25.19;34.31;98354.84;5113998;27;20023;-85
2022/10/05 11:56:46;;;;;;;2.00;1.38;;;;;;;23.75;37.08;98359.22;5112557;27;20031;-86
2022/10/05 11:59:14;;;;;;;2.25;1.35;;;;;;;22.58;38.29;98355.63;5096188;27;20039;-83
2022/10/05 12:02:14;;;;;;;2.05;1.30;;;;;;;21.77;40.70;98367.16;5113261;28;20099;-84
2022/10/05 12:04:58;;;;;;;1.33;1.15;;;;;;;22.60;39.86;98391.81;5127288;28;20033;-81
2022/10/05 12:07:49;;;;;;;2.38;1.20;;;;;;;24.43;36.75;98399.59;5131183;28;20023;-79
2022/10/05 12:10:36;;;;;;;2.72;0.95;;;;;;;27.30;32.14;98411.31;5129590;28;20109;-79
2022/10/05 12:13:20;;;;;;;1.02;0.90;;;;;;;29.18;30.02;98421.50;5111253;27;20500;-89
2022/10/05 12:15:46;;;;;;;1.60;1.10;;;;;;;28.48;30.90;98391.63;5132345;27;20031;-80
2022/10/05 12:18:20;;;;;;;1.63;1.25;;;;;;;29.12;29.93;98421.41;5132632;27;20031;-78
2022/10/05 12:20:51;;;;;;;3.05;1.13;;;;;;;29.54;30.11;98400.38;5132987;27;20035;-79
2022/10/05 12:23:24;;;;;;;3.63;1.10;;;;;;;28.65;30.98;98385.94;5115038;27;20035;-79
2022/10/05 12:25:58;;;;;;;1.95;1.30;;;;;;;28.27;31.04;98376.84;5098489;27;20035;-80
2022/10/05 12:28:34;;;;;;;6.28;2.35;;;;;;;27.00;32.83;98359.94;5130383;27;20027;-79
2022/10/05 12:31:28;;;;;;;1.33;1.20;;;;;;;24.36;35.93;98354.75;5148663;27;20491;-79
2022/10/05 12:34:17;;;;;;;2.35;1.13;;;;;;;23.31;38.30;98364.75;5093305;28;20105;-84
2022/10/05 12:36:57;;;;;;;5.45;1.13;;;;;;;25.45;34.61;98392.22;5146634;27;20414;-81